Time;durP1;ratioP1;P1;durP2;ratioP2;P2;SDS_P1;SDS_P2;PMS_P1;PMS_P2;Temp;Humidity;BMP_temperature;BMP_pressure;BME280_temperature;BME280_humidity;BME280_pressure;Samples;Min_cycle;Max_cycle;Signal;HPM_P1;HPM_P2
2021/11/15 00:01:43;;;;;;;16.30;12.30;;;11.70;99.90;;;;;;5050416;28;20427;-67
2021/11/15 00:04:15;;;;;;;13.60;11.57;;;11.70;99.90;;;;;;5050557;28;20456;-67
2021/11/15 00:06:40;;;;;;;13.90;11.70;;;11.70;99.90;;;;;;5050578;28;20434;-67
2021/11/15 00:09:07;;;;;;;12.10;10.80;;;11.70;99.90;;;;;;5051503;28;20452;-67
2021/11/15 00:11:34;;;;;;;13.40;11.53;;;11.60;99.90;;;;;;5050787;28;20222;-67
2021/11/15 00:14:00;;;;;;;15.73;11.83;;;11.60;99.90;;;;;;5051512;28;20407;-66
2021/11/15 00:16:26;;;;;;;13.13;11.10;;;11.50;99.90;;;;;;5049749;28;20763;-67
2021/11/15 00:18:52;;;;;;;13.53;11.93;;;11.50;99.90;;;;;;5050868;28;20515;-67
2021/11/15 00:21:18;;;;;;;14.53;11.83;;;11.50;99.90;;;;;;5051342;28;20493;-67
2021/11/15 00:23:44;;;;;;;15.00;11.50;;;11.50;99.90;;;;;;5053047;28;20653;-67
2021/11/15 00:26:10;;;;;;;12.20;10.90;;;11.40;99.90;;;;;;5055038;28;20497;-66
2021/11/15 00:28:35;;;;;;;14.47;12.10;;;11.30;99.90;;;;;;5053866;28;20236;-67
2021/11/15 00:31:01;;;;;;;13.10;10.93;;;11.40;99.90;;;;;;5054525;28;20183;-67
2021/11/15 00:33:27;;;;;;;15.67;11.53;;;11.40;99.90;;;;;;5054748;28;20174;-66
2021/11/15 00:35:52;;;;;;;11.93;10.70;;;11.40;99.90;;;;;;5053697;28;20187;-67
2021/11/15 00:38:19;;;;;;;13.87;12.43;;;11.30;99.90;;;;;;5054826;28;20205;-67
2021/11/15 00:40:46;;;;;;;13.83;12.07;;;11.40;99.90;;;;;;5036137;28;20177;-66
2021/11/15 00:43:12;;;;;;;13.97;11.90;;;11.40;99.90;;;;;;5054449;28;20931;-67
2021/11/15 00:45:38;;;;;;;18.47;12.97;;;11.40;99.90;;;;;;5053054;28;20479;-67
2021/11/15 00:48:05;;;;;;;15.00;11.37;;;11.40;99.90;;;;;;5054523;28;20459;-67
2021/11/15 00:50:31;;;;;;;15.40;13.00;;;11.40;99.90;;;;;;5054165;28;20424;-74
2021/11/15 00:52:57;;;;;;;15.80;13.03;;;11.40;99.90;;;;;;5054023;28;20414;-67
2021/11/15 00:55:24;;;;;;;15.90;13.90;;;11.40;99.90;;;;;;5054455;28;20960;-67
2021/11/15 00:57:50;;;;;;;14.67;12.83;;;11.30;99.90;;;;;;5053662;28;20448;-67
2021/11/15 01:00:22;;;;;;;15.80;13.90;;;11.20;99.90;;;;;;5054216;28;20413;-67
2021/11/15 01:02:48;;;;;;;17.40;13.67;;;11.10;99.90;;;;;;5053576;28;20408;-67
2021/11/15 01:05:14;;;;;;;15.30;13.70;;;11.20;99.90;;;;;;5054180;28;20490;-67
2021/11/15 01:07:40;;;;;;;15.83;13.80;;;11.30;99.90;;;;;;5053442;28;20205;-66
2021/11/15 01:10:08;;;;;;;16.90;12.67;;;11.20;99.90;;;;;;5054035;28;20427;-67
2021/11/15 01:12:34;;;;;;;15.73;12.90;;;11.20;99.90;;;;;;5053441;28;20199;-74
2021/11/15 01:15:00;;;;;;;17.67;13.57;;;11.20;99.90;;;;;;5053913;28;20493;-67
2021/11/15 01:17:26;;;;;;;16.60;14.03;;;11.20;99.90;;;;;;5053375;28;20494;-67
2021/11/15 01:19:52;;;;;;;16.17;13.77;;;11.30;99.90;;;;;;5051833;28;20411;-67
2021/11/15 01:22:18;;;;;;;17.43;14.00;;;11.40;99.90;;;;;;5053605;28;20181;-67
2021/11/15 01:24:44;;;;;;;16.63;13.80;;;11.30;99.90;;;;;;5053043;28;20424;-67
2021/11/15 01:27:10;;;;;;;18.43;14.03;;;11.20;99.90;;;;;;5052967;28;20167;-67
2021/11/15 01:29:36;;;;;;;18.57;14.93;;;11.20;99.90;;;;;;5051896;28;20460;-71
2021/11/15 01:32:02;;;;;;;18.70;14.60;;;11.20;99.90;;;;;;5053859;28;20499;-67
2021/11/15 01:34:29;;;;;;;16.47;13.83;;;11.20;99.90;;;;;;5053067;28;20221;-67
2021/11/15 01:36:55;;;;;;;18.40;14.10;;;11.20;99.90;;;;;;5052912;28;20403;-67
2021/11/15 01:39:22;;;;;;;18.30;14.00;;;11.20;99.90;;;;;;5053425;28;20424;-67
2021/11/15 01:41:49;;;;;;;17.03;14.23;;;11.20;99.90;;;;;;5052824;28;20804;-67
2021/11/15 01:44:15;;;;;;;20.00;15.17;;;11.20;99.90;;;;;;5053219;28;20416;-67
2021/11/15 01:46:40;;;;;;;18.60;14.23;;;11.10;99.90;;;;;;5052039;28;20488;-67
2021/11/15 01:49:06;;;;;;;15.40;13.50;;;11.20;99.90;;;;;;5053377;28;20213;-67
2021/11/15 01:51:32;;;;;;;18.80;14.10;;;11.20;99.90;;;;;;5053476;28;20224;-66
2021/11/15 01:53:58;;;;;;;18.90;15.00;;;11.20;99.90;;;;;;5052374;28;20230;-67
2021/11/15 01:56:24;;;;;;;18.13;13.70;;;11.10;99.90;;;;;;5053349;28;20196;-67
2021/11/15 01:58:50;;;;;;;17.60;14.30;;;11.10;99.90;;;;;;5052214;28;20448;-67
2021/11/15 02:01:16;;;;;;;17.50;14.00;;;11.10;99.90;;;;;;5052476;28;20919;-67
2021/11/15 02:03:41;;;;;;;17.20;13.33;;;11.10;99.90;;;;;;5051984;28;20618;-67
2021/11/15 02:06:10;;;;;;;16.90;14.20;;;11.10;99.90;;;;;;5053220;28;20633;-67
2021/11/15 02:08:36;;;;;;;22.40;14.83;;;11.00;99.90;;;;;;5052465;28;20560;-75
2021/11/15 02:11:02;;;;;;;18.23;14.33;;;11.00;99.90;;;;;;5053170;28;20415;-67
2021/11/15 02:13:28;;;;;;;20.17;14.97;;;10.90;99.90;;;;;;5052965;28;20417;-67
2021/11/15 02:15:54;;;;;;;16.03;12.87;;;10.80;99.90;;;;;;5051679;28;20439;-66
2021/11/15 02:18:21;;;;;;;18.30;14.47;;;10.80;99.90;;;;;;5052668;28;20181;-67
2021/11/15 02:20:56;;;;;;;17.20;13.70;;;10.90;99.90;;;;;;5052120;28;20782;-67
2021/11/15 02:23:24;;;;;;;17.73;13.57;;;10.80;99.90;;;;;;5052861;28;20399;-66
2021/11/15 02:25:53;;;;;;;19.60;14.97;;;10.80;99.90;;;;;;5051965;28;20775;-67
2021/11/15 02:28:27;;;;;;;20.33;15.60;;;10.80;99.90;;;;;;5052735;28;20964;-67
2021/11/15 02:30:53;;;;;;;17.83;14.60;;;10.80;99.90;;;;;;5051744;28;20764;-67
2021/11/15 02:33:19;;;;;;;18.50;14.13;;;10.90;99.90;;;;;;5052367;28;20489;-67
2021/11/15 02:35:45;;;;;;;18.57;14.43;;;10.90;99.90;;;;;;5051823;28;20854;-67
2021/11/15 02:38:11;;;;;;;20.60;14.27;;;11.00;99.90;;;;;;5052585;28;20204;-67
2021/11/15 02:40:38;;;;;;;16.73;14.23;;;11.00;99.90;;;;;;5050844;28;20757;-75
2021/11/15 02:43:05;;;;;;;17.10;13.33;;;11.00;99.90;;;;;;5052240;28;20389;-67
2021/11/15 02:45:32;;;;;;;19.13;14.33;;;11.00;99.90;;;;;;5050946;28;20515;-67
2021/11/15 02:47:58;;;;;;;17.90;14.00;;;11.00;99.90;;;;;;5051543;28;20454;-67
2021/11/15 02:50:26;;;;;;;18.87;14.07;;;11.10;99.90;;;;;;5052703;28;20469;-67
2021/11/15 02:52:55;;;;;;;19.60;14.90;;;11.10;99.90;;;;;;5051550;28;20466;-67
2021/11/15 02:55:24;;;;;;;18.67;14.00;;;11.00;99.90;;;;;;5051990;28;20410;-67
2021/11/15 02:57:50;;;;;;;18.60;14.20;;;11.10;99.90;;;;;;5051759;28;20470;-67
2021/11/15 03:00:25;;;;;;;19.07;14.37;;;11.10;99.90;;;;;;5051973;28;20945;-67
2021/11/15 03:02:52;;;;;;;20.33;14.50;;;11.10;99.90;;;;;;5050206;28;20738;-67
2021/11/15 03:05:26;;;;;;;18.27;14.00;;;11.20;99.90;;;;;;5050887;28;20458;-67
2021/11/15 03:07:52;;;;;;;17.40;14.40;;;11.10;99.90;;;;;;5051092;28;20879;-67
2021/11/15 03:10:19;;;;;;;20.37;14.67;;;11.20;99.90;;;;;;5052161;28;20410;-67
2021/11/15 03:12:45;;;;;;;20.27;14.67;;;11.30;99.90;;;;;;5050145;28;20412;-67
2021/11/15 03:15:20;;;;;;;21.77;15.53;;;11.20;99.90;;;;;;5050622;28;20436;-67
2021/11/15 03:18:11;;;;;;;19.80;14.67;;;11.30;99.90;;;;;;5051440;28;20403;-67
2021/11/15 03:20:40;;;;;;;20.20;13.87;;;11.10;99.90;;;;;;5051401;28;20422;-67
2021/11/15 03:23:10;;;;;;;23.10;15.10;;;11.10;99.90;;;;;;5051780;28;20409;-67
2021/11/15 03:25:37;;;;;;;18.20;14.60;;;11.00;99.90;;;;;;5052177;28;20411;-67
2021/11/15 03:28:03;;;;;;;21.67;14.83;;;11.00;99.90;;;;;;5051161;28;20781;-67
2021/11/15 03:30:29;;;;;;;23.77;15.10;;;10.90;99.90;;;;;;5051734;28;20873;-67
2021/11/15 03:32:55;;;;;;;21.07;13.80;;;11.00;99.90;;;;;;5051159;28;20452;-67
2021/11/15 03:35:22;;;;;;;19.23;13.17;;;10.90;99.90;;;;;;5051988;28;20419;-67
2021/11/15 03:37:48;;;;;;;18.17;14.10;;;10.90;99.90;;;;;;5051106;28;20428;-67
2021/11/15 03:40:20;;;;;;;21.60;14.47;;;10.90;99.90;;;;;;5050704;28;20407;-67
2021/11/15 03:42:46;;;;;;;21.90;15.17;;;11.00;99.90;;;;;;5051103;28;20392;-67
2021/11/15 03:45:13;;;;;;;21.60;14.80;;;11.00;99.90;;;;;;5049939;28;20467;-67
2021/11/15 03:47:40;;;;;;;20.50;14.90;;;11.00;99.90;;;;;;5051738;28;20554;-67
2021/11/15 03:50:07;;;;;;;19.33;13.93;;;11.00;99.90;;;;;;5051541;28;20460;-67
2021/11/15 03:52:34;;;;;;;18.63;13.83;;;11.00;99.90;;;;;;5051696;28;20408;-67
2021/11/15 03:54:59;;;;;;;23.20;15.13;;;11.00;99.90;;;;;;5050905;28;20455;-67
2021/11/15 03:57:25;;;;;;;18.47;14.07;;;11.10;99.90;;;;;;5053684;28;20416;-67
2021/11/15 03:59:51;;;;;;;20.83;14.50;;;11.10;99.90;;;;;;5053390;28;20189;-68
2021/11/15 04:02:19;;;;;;;20.50;14.90;;;11.00;99.90;;;;;;5054498;28;20742;-68
2021/11/15 04:04:58;;;;;;;20.30;14.40;;;11.10;99.90;;;;;;5053575;28;20418;-75
2021/11/15 04:07:39;;;;;;;19.23;13.67;;;11.00;99.90;;;;;;5055350;28;20481;-68
2021/11/15 04:10:20;;;;;;;19.93;14.17;;;11.00;99.90;;;;;;5054607;28;20397;-68
2021/11/15 04:12:46;;;;;;;20.50;14.40;;;11.00;99.90;;;;;;5054632;28;20387;-70
2021/11/15 04:15:13;;;;;;;20.70;14.93;;;10.90;99.90;;;;;;5054642;28;20428;-68
2021/11/15 04:17:41;;;;;;;23.73;14.90;;;10.90;99.90;;;;;;5055058;28;20788;-68
2021/11/15 04:20:09;;;;;;;20.23;14.50;;;11.00;99.90;;;;;;5054601;28;20970;-68
2021/11/15 04:22:36;;;;;;;22.40;14.70;;;10.90;99.90;;;;;;5055188;28;20812;-68
2021/11/15 04:25:06;;;;;;;23.63;14.33;;;10.90;99.90;;;;;;5054319;28;20436;-68
2021/11/15 04:27:32;;;;;;;20.93;14.37;;;10.90;99.90;;;;;;5054993;28;20571;-68
2021/11/15 04:29:58;;;;;;;21.87;15.40;;;10.90;99.90;;;;;;5053996;28;20932;-68
2021/11/15 04:32:24;;;;;;;21.80;14.77;;;11.00;99.90;;;;;;5054794;28;20451;-68
2021/11/15 04:34:50;;;;;;;20.20;14.47;;;11.00;99.90;;;;;;5054138;28;20197;-68
2021/11/15 04:37:16;;;;;;;22.30;14.63;;;11.00;99.90;;;;;;5054840;28;20171;-68
2021/11/15 04:39:42;;;;;;;19.60;14.73;;;11.00;99.90;;;;;;5054704;28;20394;-68
2021/11/15 04:42:08;;;;;;;21.27;15.10;;;10.90;99.90;;;;;;5054065;28;20491;-68
2021/11/15 04:44:33;;;;;;;26.43;16.17;;;10.90;99.90;;;;;;5054239;28;20185;-68
2021/11/15 04:46:59;;;;;;;22.03;17.10;;;10.90;99.90;;;;;;5053855;28;20452;-68
2021/11/15 04:49:25;;;;;;;22.20;15.57;;;11.00;99.90;;;;;;5054594;28;20181;-68
2021/11/15 04:51:51;;;;;;;19.80;14.90;;;10.90;99.90;;;;;;5053550;28;20191;-69
2021/11/15 04:54:18;;;;;;;24.33;16.20;;;10.90;99.90;;;;;;5054663;28;20176;-68
2021/11/15 04:56:43;;;;;;;22.43;15.70;;;10.90;99.90;;;;;;5054381;28;20414;-72
2021/11/15 04:59:09;;;;;;;20.87;15.40;;;10.80;99.90;;;;;;5053366;28;20438;-68
2021/11/15 05:01:35;;;;;;;21.10;14.70;;;10.90;99.90;;;;;;5053183;28;20185;-68
2021/11/15 05:04:01;;;;;;;21.50;14.20;;;10.90;99.90;;;;;;5053120;28;20518;-68
2021/11/15 05:06:27;;;;;;;21.63;15.30;;;10.90;99.90;;;;;;5054093;28;20436;-68
2021/11/15 05:08:53;;;;;;;21.90;15.43;;;10.90;99.90;;;;;;5052530;28;20506;-68
2021/11/15 05:11:19;;;;;;;19.97;13.47;;;10.90;99.90;;;;;;5053074;28;20188;-68
2021/11/15 05:13:45;;;;;;;19.70;14.57;;;10.80;99.90;;;;;;5054081;28;20204;-73
2021/11/15 05:16:11;;;;;;;22.63;14.90;;;10.90;99.90;;;;;;5053101;28;20617;-68
2021/11/15 05:18:36;;;;;;;18.40;13.33;;;10.90;99.90;;;;;;5053760;28;20245;-68
2021/11/15 05:21:02;;;;;;;23.47;16.57;;;10.90;99.90;;;;;;5053115;28;20419;-68
2021/11/15 05:23:28;;;;;;;23.67;14.63;;;10.90;99.90;;;;;;5054149;28;20230;-68
2021/11/15 05:25:55;;;;;;;21.97;14.57;;;10.90;99.90;;;;;;5052928;28;20172;-68
2021/11/15 05:28:20;;;;;;;16.80;12.90;;;11.00;99.90;;;;;;5053715;28;20555;-68
2021/11/15 05:30:46;;;;;;;18.60;14.23;;;11.00;99.90;;;;;;5053469;28;20497;-75
2021/11/15 05:33:12;;;;;;;16.70;12.87;;;11.00;99.90;;;;;;5053345;28;20271;-68
2021/11/15 05:35:38;;;;;;;18.87;13.63;;;11.00;99.90;;;;;;5053858;28;20173;-68
2021/11/15 05:38:04;;;;;;;19.00;13.80;;;10.90;99.90;;;;;;5052637;28;20180;-68
2021/11/15 05:40:30;;;;;;;18.97;14.40;;;10.90;99.90;;;;;;5053389;28;20736;-68
2021/11/15 05:42:56;;;;;;;20.80;15.33;;;10.90;99.90;;;;;;5051632;28;20436;-69
2021/11/15 05:45:24;;;;;;;21.00;14.97;;;10.90;99.90;;;;;;5052684;28;20800;-69
2021/11/15 05:47:50;;;;;;;17.33;13.40;;;10.90;99.90;;;;;;5056723;28;20211;-69
2021/11/15 05:50:18;;;;;;;22.70;15.10;;;11.00;99.90;;;;;;5053252;28;20456;-69
2021/11/15 05:52:44;;;;;;;25.50;17.13;;;11.00;99.90;;;;;;5053128;28;20968;-68
2021/11/15 05:55:14;;;;;;;21.67;14.30;;;11.00;99.90;;;;;;5052865;28;20428;-68
2021/11/15 05:57:40;;;;;;;18.60;14.03;;;11.00;99.90;;;;;;5053770;28;20423;-69
2021/11/15 06:00:09;;;;;;;21.33;14.93;;;10.90;99.90;;;;;;5052509;28;20405;-69
2021/11/15 06:02:34;;;;;;;20.83;14.77;;;11.00;99.90;;;;;;5053551;28;20410;-69
2021/11/15 06:05:00;;;;;;;21.80;14.97;;;11.00;99.90;;;;;;5053049;28;20494;-67
2021/11/15 06:07:26;;;;;;;18.00;13.50;;;11.00;99.90;;;;;;5053468;28;20617;-67
2021/11/15 06:09:52;;;;;;;17.93;13.37;;;11.00;99.90;;;;;;5052679;28;20446;-68
2021/11/15 06:12:17;;;;;;;18.67;13.97;;;11.00;99.90;;;;;;5053416;28;20172;-67
2021/11/15 06:14:43;;;;;;;18.90;13.03;;;11.00;99.90;;;;;;5053438;28;20169;-67
2021/11/15 06:17:09;;;;;;;17.97;13.20;;;11.10;99.90;;;;;;5052736;28;20200;-67
2021/11/15 06:19:35;;;;;;;16.53;12.10;;;11.10;99.90;;;;;;5053335;28;20171;-67
2021/11/15 06:22:01;;;;;;;18.90;14.07;;;11.10;99.90;;;;;;5052361;28;20234;-67
2021/11/15 06:24:27;;;;;;;20.03;12.60;;;11.00;99.90;;;;;;5053236;28;20265;-67
2021/11/15 06:26:53;;;;;;;16.27;12.13;;;10.90;99.90;;;;;;5051256;28;20453;-68
2021/11/15 06:29:18;;;;;;;20.50;15.20;;;10.60;99.90;;;;;;5052157;28;20498;-71
2021/11/15 06:31:44;;;;;;;21.87;13.77;;;10.60;99.90;;;;;;5052284;28;20553;-68
2021/11/15 06:34:10;;;;;;;21.80;13.13;;;10.60;99.90;;;;;;5052394;28;20186;-67
2021/11/15 06:36:36;;;;;;;18.47;13.30;;;10.60;99.90;;;;;;5052920;28;20192;-67
2021/11/15 06:39:03;;;;;;;18.90;13.87;;;10.70;99.90;;;;;;5051820;28;20540;-67
2021/11/15 06:41:29;;;;;;;18.63;13.00;;;10.70;99.90;;;;;;5052661;28;20442;-67
2021/11/15 06:43:56;;;;;;;18.97;14.10;;;10.80;99.90;;;;;;5052082;28;20504;-67
2021/11/15 06:46:22;;;;;;;24.77;16.50;;;10.80;99.90;;;;;;5052869;28;20226;-67
2021/11/15 06:48:48;;;;;;;22.53;15.67;;;10.80;99.90;;;;;;5052160;28;20469;-67
2021/11/15 06:51:15;;;;;;;24.20;16.57;;;10.80;99.90;;;;;;5051490;28;20538;-67
2021/11/15 06:53:42;;;;;;;24.60;16.50;;;10.70;99.90;;;;;;5052093;28;20515;-67
2021/11/15 06:56:08;;;;;;;22.03;15.53;;;10.70;99.90;;;;;;5051939;28;20454;-68
2021/11/15 06:58:35;;;;;;;25.40;15.60;;;10.70;99.90;;;;;;5051119;28;20560;-67
2021/11/15 07:01:02;;;;;;;27.80;17.00;;;10.80;99.90;;;;;;5050427;28;20427;-68
2021/11/15 07:03:34;;;;;;;28.07;16.70;;;10.80;99.90;;;;;;5051855;28;20568;-68
2021/11/15 07:06:01;;;;;;;25.57;17.73;;;10.90;99.90;;;;;;5047762;28;20428;-68
2021/11/15 07:08:27;;;;;;;22.23;15.17;;;10.90;99.90;;;;;;5051811;28;20444;-68
2021/11/15 07:10:53;;;;;;;21.93;14.70;;;10.90;99.90;;;;;;5056284;28;20951;-68
2021/11/15 07:13:19;;;;;;;20.50;15.03;;;10.80;99.90;;;;;;5051404;28;20415;-67
2021/11/15 07:15:48;;;;;;;24.93;15.70;;;10.80;99.90;;;;;;5051619;28;20438;-68
2021/11/15 07:18:14;;;;;;;21.37;15.70;;;10.90;99.90;;;;;;5052188;28;20939;-68
2021/11/15 07:20:39;;;;;;;21.00;14.80;;;10.80;99.90;;;;;;5071344;28;20413;-68
2021/11/15 07:23:07;;;;;;;20.67;14.60;;;10.80;99.90;;;;;;5064992;28;20451;-68
2021/11/15 07:25:33;;;;;;;22.50;14.10;;;10.70;99.90;;;;;;5051657;28;20238;-68
2021/11/15 07:27:59;;;;;;;20.10;14.93;;;10.60;99.90;;;;;;5051475;28;20492;-67
2021/11/15 07:30:25;;;;;;;21.80;15.10;;;10.60;99.90;;;;;;5052340;28;20513;-68
2021/11/15 07:32:52;;;;;;;25.60;15.13;;;10.60;99.90;;;;;;5054717;28;20419;-68
2021/11/15 07:35:18;;;;;;;18.83;14.23;;;10.60;99.90;;;;;;5055525;28;20418;-68
2021/11/15 07:37:45;;;;;;;21.07;13.70;;;10.60;99.90;;;;;;5055680;28;20428;-69
2021/11/15 07:40:13;;;;;;;19.47;14.40;;;10.50;99.90;;;;;;5055189;28;20417;-70
2021/11/15 07:42:39;;;;;;;24.17;15.90;;;10.50;99.90;;;;;;5055965;28;20423;-70
2021/11/15 07:45:06;;;;;;;22.00;14.83;;;10.30;99.90;;;;;;5055967;28;20523;-71
2021/11/15 07:47:34;;;;;;;21.20;14.13;;;10.40;99.90;;;;;;5054814;28;20516;-74
2021/11/15 07:50:00;;;;;;;19.57;14.17;;;10.30;99.90;;;;;;5053590;28;20442;-71
2021/11/15 07:52:26;;;;;;;19.83;13.53;;;10.30;99.90;;;;;;5056078;28;20405;-71
2021/11/15 07:54:52;;;;;;;16.40;12.80;;;10.30;99.90;;;;;;5055905;28;20185;-71
2021/11/15 07:57:18;;;;;;;18.40;13.30;;;10.40;99.90;;;;;;5054709;28;20243;-69
2021/11/15 07:59:44;;;;;;;15.57;11.97;;;10.40;99.90;;;;;;5045596;28;20408;-68
2021/11/15 08:02:12;;;;;;;18.70;14.17;;;10.30;99.90;;;;;;5055005;28;20425;-68
2021/11/15 08:04:39;;;;;;;17.80;13.23;;;10.30;99.90;;;;;;5055492;28;20477;-68
2021/11/15 08:07:06;;;;;;;16.47;11.73;;;10.10;99.90;;;;;;5055051;28;20513;-68
2021/11/15 08:09:32;;;;;;;16.70;12.23;;;10.00;99.90;;;;;;5055791;28;20422;-68
2021/11/15 08:12:06;;;;;;;13.77;11.63;;;9.90;99.90;;;;;;5052898;28;20989;-68
2021/11/15 08:14:34;;;;;;;15.00;11.93;;;10.00;99.90;;;;;;5055629;28;20446;-68
2021/11/15 08:17:00;;;;;;;17.83;14.23;;;10.00;99.90;;;;;;5054882;28;20413;-68
2021/11/15 08:19:26;;;;;;;14.87;12.50;;;10.10;99.90;;;;;;5055296;28;20894;-68
2021/11/15 08:21:51;;;;;;;13.93;12.40;;;10.10;99.90;;;;;;5054555;28;20415;-68
2021/11/15 08:24:17;;;;;;;17.10;11.43;;;10.20;99.90;;;;;;5060990;28;20637;-70
2021/11/15 08:26:44;;;;;;;15.13;12.20;;;10.20;99.90;;;;;;5055400;28;20536;-68
2021/11/15 08:29:11;;;;;;;14.80;12.17;;;10.20;99.90;;;;;;5053952;28;20196;-68
2021/11/15 08:31:39;;;;;;;14.77;12.20;;;10.20;99.90;;;;;;5055252;28;20417;-68
2021/11/15 08:34:06;;;;;;;16.00;13.10;;;10.40;99.90;;;;;;5054600;28;20434;-68
2021/11/15 08:36:32;;;;;;;14.83;12.40;;;10.40;99.90;;;;;;5055263;28;20411;-68
2021/11/15 08:39:02;;;;;;;13.40;10.00;;;10.40;99.90;;;;;;5054622;28;20405;-68
2021/11/15 08:41:34;;;;;;;16.07;12.00;;;10.40;99.90;;;;;;5054457;28;20452;-68
2021/11/15 08:44:01;;;;;;;13.80;11.17;;;10.40;99.90;;;;;;5053376;28;20961;-69
2021/11/15 08:46:30;;;;;;;14.33;10.80;;;10.40;99.90;;;;;;5055080;28;20822;-69
2021/11/15 08:48:58;;;;;;;12.33;10.60;;;10.30;99.90;;;;;;5054576;28;20449;-68
2021/11/15 08:51:25;;;;;;;13.30;11.00;;;9.90;99.90;;;;;;5054994;28;20418;-68
2021/11/15 08:53:52;;;;;;;12.30;9.70;;;9.70;99.90;;;;;;5054893;28;20910;-69
2021/11/15 08:56:18;;;;;;;13.70;10.00;;;9.60;99.90;;;;;;5054290;28;20436;-68
2021/11/15 08:58:46;;;;;;;11.73;10.37;;;9.50;99.90;;;;;;5054781;28;20423;-68
2021/11/15 09:01:12;;;;;;;13.47;10.13;;;9.50;99.90;;;;;;5053986;28;20406;-68
2021/11/15 09:03:39;;;;;;;15.83;10.77;;;9.50;99.90;;;;;;5054347;28;20426;-70
2021/11/15 09:06:10;;;;;;;12.73;9.30;;;9.60;99.90;;;;;;5054565;28;20733;-70
2021/11/15 09:08:40;;;;;;;13.27;9.47;;;9.80;99.90;;;;;;5054569;28;20962;-70
2021/11/15 09:11:07;;;;;;;12.73;9.77;;;9.70;99.90;;;;;;5053967;28;20394;-69
2021/11/15 09:13:33;;;;;;;14.90;10.90;;;9.70;99.90;;;;;;5054340;28;20422;-68
2021/11/15 09:15:59;;;;;;;14.20;9.70;;;9.80;99.90;;;;;;5054220;28;20404;-77
2021/11/15 09:18:26;;;;;;;11.40;9.13;;;9.80;99.90;;;;;;5053522;28;20420;-69
2021/11/15 09:20:52;;;;;;;12.30;10.10;;;9.80;99.90;;;;;;5054208;28;20403;-71
2021/11/15 09:23:18;;;;;;;11.70;9.03;;;9.70;99.90;;;;;;5053562;28;20427;-69
2021/11/15 09:25:44;;;;;;;13.03;9.80;;;9.70;99.90;;;;;;5054371;28;20418;-69
2021/11/15 09:28:10;;;;;;;12.00;10.80;;;9.80;99.90;;;;;;5053525;28;20281;-70
2021/11/15 09:30:38;;;;;;;12.03;10.00;;;9.80;99.90;;;;;;5053603;28;20508;-69
2021/11/15 09:33:05;;;;;;;11.43;10.23;;;9.90;99.90;;;;;;5053208;28;20425;-69
2021/11/15 09:35:31;;;;;;;14.43;10.03;;;9.90;99.90;;;;;;5053409;28;20547;-69
2021/11/15 09:37:57;;;;;;;11.20;8.87;;;10.00;99.90;;;;;;5053312;28;20477;-69
2021/11/15 09:40:23;;;;;;;11.03;9.93;;;10.10;99.90;;;;;;5052695;28;20905;-74
2021/11/15 09:42:50;;;;;;;10.57;8.93;;;10.10;99.90;;;;;;5053661;28;20261;-69
2021/11/15 09:45:16;;;;;;;11.83;9.97;;;10.10;99.90;;;;;;5051220;28;20495;-69
2021/11/15 09:47:42;;;;;;;9.93;8.33;;;10.10;99.90;;;;;;5053099;28;20495;-69
2021/11/15 09:50:17;;;;;;;10.93;8.90;;;10.20;99.90;;;;;;5052733;28;20927;-71
2021/11/15 09:52:43;;;;;;;11.17;9.83;;;10.20;99.90;;;;;;5054145;28;20609;-68
2021/11/15 09:55:10;;;;;;;10.70;8.83;;;10.20;99.90;;;;;;5051877;28;20427;-69
2021/11/15 09:57:39;;;;;;;9.10;7.90;;;10.30;99.90;;;;;;5053819;28;20895;-69
2021/11/15 10:00:09;;;;;;;10.43;8.83;;;10.40;99.90;;;;;;5048742;28;21054;-68
2021/11/15 10:02:37;;;;;;;11.27;9.57;;;10.30;99.90;;;;;;5052980;28;20826;-68
2021/11/15 10:05:07;;;;;;;13.73;9.87;;;10.30;99.90;;;;;;5049251;28;20443;-69
2021/11/15 10:07:48;;;;;;;11.73;9.10;;;10.40;99.90;;;;;;5052264;28;21194;-69
2021/11/15 10:10:40;;;;;;;10.70;8.60;;;10.40;99.90;;;;;;5051188;28;20428;-68
2021/11/15 10:13:29;;;;;;;8.30;7.40;;;10.50;99.90;;;;;;5052385;28;20833;-69
2021/11/15 10:16:02;;;;;;;10.70;9.37;;;10.40;99.90;;;;;;5053760;28;20447;-68
2021/11/15 10:18:36;;;;;;;10.30;9.20;;;10.40;99.90;;;;;;5053292;28;20415;-69
2021/11/15 10:21:09;;;;;;;13.43;9.43;;;10.40;99.90;;;;;;5053105;28;20883;-69
2021/11/15 10:23:41;;;;;;;11.43;9.20;;;10.40;99.90;;;;;;5053034;28;20412;-68
2021/11/15 10:26:16;;;;;;;11.83;9.70;;;10.50;99.90;;;;;;5052787;28;20389;-72
2021/11/15 10:28:42;;;;;;;12.77;10.50;;;10.60;99.90;;;;;;5052270;28;20447;-72
2021/11/15 10:31:38;;;;;;;19.77;13.03;;;11.60;99.90;;;;;;5052559;28;20413;-73
2021/11/15 10:34:07;;;;;;;12.57;11.23;;;12.20;99.90;;;;;;5053290;28;20467;-92
2021/11/15 10:36:51;;;;;;;10.17;9.20;;;12.80;99.90;;;;;;5053003;28;20415;-72
2021/11/15 10:39:20;;;;;;;10.30;9.23;;;13.20;99.90;;;;;;5052638;28;20760;-72
2021/11/15 10:42:03;;;;;;;9.93;9.00;;;13.60;99.90;;;;;;5053160;28;20409;-72
2021/11/15 10:44:30;;;;;;;9.30;8.33;;;14.10;99.90;;;;;;5052808;28;20450;-74
2021/11/15 10:46:58;;;;;;;10.27;8.43;;;14.30;99.90;;;;;;5052747;28;20479;-73
2021/11/15 10:49:25;;;;;;;8.53;7.73;;;14.60;99.70;;;;;;5052361;28;20705;-72
2021/11/15 10:51:56;;;;;;;8.33;7.53;;;14.80;98.10;;;;;;5052151;28;20789;-70
2021/11/15 10:54:29;;;;;;;8.93;8.13;;;15.10;97.10;;;;;;5050948;28;20400;-70
2021/11/15 10:57:25;;;;;;;9.80;7.80;;;14.90;92.70;;;;;;5051372;28;20397;-70
2021/11/15 11:00:09;;;;;;;8.77;7.97;;;14.50;91.30;;;;;;5051414;28;20393;-79
2021/11/15 11:02:40;;;;;;;8.77;7.90;;;13.90;91.30;;;;;;5051313;28;20422;-70
2021/11/15 11:05:18;;;;;;;9.67;8.67;;;13.40;92.70;;;;;;5050581;28;20394;-71
2021/11/15 11:07:46;;;;;;;10.47;7.87;;;13.10;92.80;;;;;;5051496;28;20810;-69
2021/11/15 11:10:16;;;;;;;8.60;7.33;;;12.90;93.40;;;;;;5050859;28;20406;-70
2021/11/15 11:13:00;;;;;;;9.97;8.17;;;12.50;94.10;;;;;;5051343;28;20421;-70
2021/11/15 11:15:34;;;;;;;10.67;8.43;;;12.20;94.70;;;;;;5050807;28;20826;-70
2021/11/15 11:21:26;;;;;;;12.13;10.73;;;12.00;95.50;;;;;;5048103;28;20743;-70
2021/11/15 11:26:29;;;;;;;12.90;10.60;;;11.70;96.20;;;;;;5050908;28;20416;-69
2021/11/15 11:29:04;;;;;;;12.70;10.30;;;11.60;96.50;;;;;;5052023;28;20457;-69
2021/11/15 11:31:32;;;;;;;13.70;10.70;;;11.50;96.90;;;;;;5051340;28;20745;-77
2021/11/15 11:33:59;;;;;;;12.80;9.47;;;11.50;97.10;;;;;;5052223;28;20462;-70
2021/11/15 11:36:25;;;;;;;13.10;9.23;;;11.40;97.20;;;;;;5051295;28;20783;-70
2021/11/15 11:38:51;;;;;;;15.60;11.60;;;11.30;97.40;;;;;;5052177;28;20411;-69
2021/11/15 11:41:19;;;;;;;12.47;11.17;;;11.20;97.60;;;;;;5050338;28;20181;-70
2021/11/15 11:43:46;;;;;;;12.53;10.50;;;11.00;98.10;;;;;;5050404;28;20426;-69
2021/11/15 11:46:15;;;;;;;13.03;10.40;;;10.90;98.60;;;;;;5050893;28;21079;-69
2021/11/15 11:48:45;;;;;;;10.30;9.07;;;10.90;98.60;;;;;;5051499;28;20455;-69
2021/11/15 11:51:13;;;;;;;12.40;11.10;;;10.90;98.80;;;;;;5050548;28;20912;-83
2021/11/15 11:53:39;;;;;;;13.10;10.17;;;10.90;98.70;;;;;;5050007;28;20786;-69
2021/11/15 11:56:21;;;;;;;12.63;10.67;;;10.90;98.60;;;;;;5051621;28;20414;-69
2021/11/15 11:58:51;;;;;;;12.43;9.67;;;11.00;98.60;;;;;;5051970;28;20476;-68
2021/11/15 12:01:23;;;;;;;12.73;11.43;;;10.90;99.00;;;;;;5051451;28;20406;-70
2021/11/15 12:04:15;;;;;;;12.37;10.03;;;10.90;98.70;;;;;;5051961;28;20915;-70
2021/11/15 12:06:43;;;;;;;13.13;10.80;;;10.80;98.80;;;;;;5051317;28;20457;-69
2021/11/15 12:09:09;;;;;;;13.77;12.30;;;10.80;98.50;;;;;;5051246;28;20459;-83
2021/11/15 12:11:38;;;;;;;14.67;11.07;;;10.80;99.10;;;;;;5048820;28;20424;-69
2021/11/15 12:14:06;;;;;;;14.17;10.53;;;10.80;98.80;;;;;;5051245;28;20417;-68
2021/11/15 12:17:07;;;;;;;14.23;12.70;;;10.90;99.00;;;;;;5049932;28;20471;-69
2021/11/15 12:19:57;;;;;;;13.77;10.87;;;10.90;98.80;;;;;;5054949;28;20763;-69
2021/11/15 12:22:26;;;;;;;13.67;11.57;;;10.90;99.70;;;;;;5052755;28;20854;-70
2021/11/15 12:25:04;;;;;;;12.67;10.70;;;10.90;99.20;;;;;;5055055;28;20851;-69
2021/11/15 12:27:42;;;;;;;11.17;9.97;;;10.90;98.90;;;;;;5054925;28;20423;-69
2021/11/15 12:30:14;;;;;;;13.40;10.40;;;10.90;98.70;;;;;;5037231;28;20999;-69
2021/11/15 12:32:41;;;;;;;12.77;11.10;;;10.90;98.90;;;;;;5055172;28;20449;-69
2021/11/15 12:35:08;;;;;;;14.80;11.40;;;10.80;98.90;;;;;;5053249;28;20473;-69
2021/11/15 12:37:40;;;;;;;14.93;11.93;;;10.80;98.90;;;;;;5054566;28;20413;-69
2021/11/15 12:40:08;;;;;;;17.53;13.13;;;10.80;99.20;;;;;;5055374;28;20400;-69
2021/11/15 12:42:34;;;;;;;14.87;10.50;;;10.80;99.10;;;;;;5054503;28;20511;-72